Wyatt, MO (63882)

8:14 AM CDT on July 26, 2014 (GMT -0500)
Cairo Regional (KCIR) Elev 322 ft | 37.06 °N, 89.22 °W | Change Station

Current weather conditions updated 19 minutes ago

Clear
Clear
74 °F
Feels Like 74 °F
N
6
Wind Variable Wind from South

Today is forecast to be Much Warmer than yesterday.

Today
High -- | Low -- °F
--% Chance of Precip.
Yesterday
High -- | Low -- °F
Precip. -- in
5:57 AM 8:08 PM
Waning Crescent, 0% visible
Pressure 29.99 in
Visibility 10.0 miles
Clouds Clear
Dew Point 67 °F
Humidity 80%
Rainfall 0.12 in
Snow Depth Not available.
UV 2 out of 12
Pollen 7.80 out of 12
Air Quality Not available.
Flu Activity Not available.
METAR KCIR 261255Z AUTO 19005KT 10SM CLR 23/20 A2999 RMK AO2 T02310195

More Conditions Fewer Conditions

Pressure 29.99 in
Visibility 10.0 miles
Clouds Clear
Dew Point 67 °F
Humidity 80%
Rainfall 0.12 in
Snow Depth Not available.
UV 2 out of 12
Pollen 7.80 out of 12
Air Quality Not available.
Flu Activity Not available.
METAR KCIR 261255Z AUTO 19005KT 10SM CLR 23/20 A2999 RMK AO2 T02310195

More Conditions Fewer Conditions

10-Day Weather Forecast

Almanac

Astronomy

Jul. 26, 2014 Rise Set
Actual Time 5:57 AM CDT 8:08 PM CDT
Civil Twilight 5:28 AM CDT 8:37 PM CDT
Nautical Twilight 4:52 AM CDT 9:13 PM CDT
Astronomical Twilight 4:13 AM CDT 9:52 PM CDT
Moon 5:48 AM CDT 7:45 PM CDT
Length of Visible Light 15h 09m
Length of Day
14h 11m
Tomorrow will be 1m 36s shorter.
Waning Crescent, 0% of the Moon is Illuminated
Today
Waning Crescent
Jul 26
New
Aug 3
First Quarter
Aug 10
Full
Aug 17
Last Quarter

Today's Extremes

State Highs State Lows

Community

WunderPhotos

Upload Photos

1,737,565 photos uploaded!

Nearby

Snow Depth

Station Depth Elevation
No new snow has been reported.

Earthquake Activity

City Distance Mag. Time & Date
No recent earthquake activity has been reported nearby.
Minimum magnitude displayed is 2.5.

Coastal Water Temperatures

Place Temperature
No Stations Reporting

Nearby Weather Stations

Station Location Temp. Heat Index Dew Point Humidity Wind Precip. Elev Updated Type
South Adkins Dixon Road, Wickliffe, KY 70.3 °F - 69 °F 95% WSW  at  0.0 mph 0.00 in / hr 443 ft 8:14 AM CDT Rapid Fire
APRSWXNET Dorena MO , Wolf Island, MO 73 °F 72 °F 68 °F 84% SSE  at  4 mph 0.00 in / hr 275 ft 7:46 AM CDT MADIS
SEMO Electric Coop, Sikeston, MO 73.0 °F 71 °F 70 °F 89% SSW  at  4.0 mph 0.00 in / hr 338 ft 8:10 AM CDT Normal
Sikeston Ridge, Sikeston, MO 73.3 °F 72 °F 70 °F 88% SW  at  0.0 mph 0.00 in / hr 326 ft 8:09 AM CDT Normal

Show More Stations Show Fewer Stations